sensor_id;sensor_type;location;lat;lon;timestamp;P1;durP1;ratioP1;P2;durP2;ratioP2
41233;SDS011;26968;42.686;23.352;2022-09-17T00:00:12;19.42;;;6.28;;
41233;SDS011;26968;42.686;23.352;2022-09-17T00:02:38;24.67;;;7.07;;
41233;SDS011;26968;42.686;23.352;2022-09-17T00:05:04;15.57;;;6.18;;
41233;SDS011;26968;42.686;23.352;2022-09-17T00:07:30;11.98;;;6.07;;
41233;SDS011;26968;42.686;23.352;2022-09-17T00:09:56;16.05;;;6.40;;
41233;SDS011;26968;42.686;23.352;2022-09-17T00:12:21;13.88;;;5.95;;
41233;SDS011;26968;42.686;23.352;2022-09-17T00:14:47;18.40;;;6.07;;
41233;SDS011;26968;42.686;23.352;2022-09-17T00:17:12;17.90;;;6.85;;
41233;SDS011;26968;42.686;23.352;2022-09-17T00:19:38;12.02;;;6.10;;
41233;SDS011;26968;42.686;23.352;2022-09-17T00:22:03;12.63;;;6.00;;
41233;SDS011;26968;42.686;23.352;2022-09-17T00:24:29;14.75;;;6.07;;
41233;SDS011;26968;42.686;23.352;2022-09-17T00:26:54;17.58;;;6.90;;
41233;SDS011;26968;42.686;23.352;2022-09-17T00:29:20;16.60;;;6.28;;
41233;SDS011;26968;42.686;23.352;2022-09-17T00:31:45;18.52;;;6.38;;
41233;SDS011;26968;42.686;23.352;2022-09-17T00:34:11;20.15;;;6.15;;
41233;SDS011;26968;42.686;23.352;2022-09-17T00:36:37;23.05;;;7.03;;
41233;SDS011;26968;42.686;23.352;2022-09-17T00:39:04;17.83;;;6.07;;
41233;SDS011;26968;42.686;23.352;2022-09-17T00:41:31;16.10;;;6.20;;
41233;SDS011;26968;42.686;23.352;2022-09-17T00:43:59;20.92;;;6.43;;
41233;SDS011;26968;42.686;23.352;2022-09-17T00:46:44;17.30;;;5.85;;
41233;SDS011;26968;42.686;23.352;2022-09-17T00:51:36;23.52;;;6.45;;
41233;SDS011;26968;42.686;23.352;2022-09-17T00:54:06;16.08;;;6.57;;
41233;SDS011;26968;42.686;23.352;2022-09-17T00:56:34;12.07;;;6.13;;
41233;SDS011;26968;42.686;23.352;2022-09-17T00:59:02;11.55;;;5.72;;
41233;SDS011;26968;42.686;23.352;2022-09-17T01:01:29;11.68;;;5.95;;
41233;SDS011;26968;42.686;23.352;2022-09-17T01:03:55;18.88;;;6.43;;
41233;SDS011;26968;42.686;23.352;2022-09-17T01:14:25;10.98;;;5.72;;
41233;SDS011;26968;42.686;23.352;2022-09-17T01:22:58;17.05;;;6.57;;
41233;SDS011;26968;42.686;23.352;2022-09-17T01:50:17;17.33;;;6.07;;
41233;SDS011;26968;42.686;23.352;2022-09-17T01:52:48;13.15;;;6.03;;
41233;SDS011;26968;42.686;23.352;2022-09-17T01:55:17;13.35;;;6.35;;
41233;SDS011;26968;42.686;23.352;2022-09-17T02:00:27;13.88;;;5.15;;
41233;SDS011;26968;42.686;23.352;2022-09-17T02:08:10;11.98;;;5.43;;
41233;SDS011;26968;42.686;23.352;2022-09-17T02:10:48;9.30;;;5.07;;
41233;SDS011;26968;42.686;23.352;2022-09-17T02:13:20;17.15;;;5.63;;
41233;SDS011;26968;42.686;23.352;2022-09-17T02:15:55;16.23;;;5.05;;
41233;SDS011;26968;42.686;23.352;2022-09-17T02:18:28;10.85;;;4.50;;
41233;SDS011;26968;42.686;23.352;2022-09-17T02:21:15;14.93;;;5.03;;
41233;SDS011;26968;42.686;23.352;2022-09-17T02:23:57;15.70;;;5.35;;
41233;SDS011;26968;42.686;23.352;2022-09-17T02:26:32;11.07;;;4.78;;
41233;SDS011;26968;42.686;23.352;2022-09-17T02:29:06;13.30;;;5.82;;
41233;SDS011;26968;42.686;23.352;2022-09-17T02:31:38;12.80;;;6.25;;
41233;SDS011;26968;42.686;23.352;2022-09-17T02:34:05;16.08;;;6.25;;
41233;SDS011;26968;42.686;23.352;2022-09-17T02:36:32;14.88;;;6.43;;
41233;SDS011;26968;42.686;23.352;2022-09-17T02:38:59;16.77;;;5.05;;
41233;SDS011;26968;42.686;23.352;2022-09-17T02:47:02;11.60;;;5.03;;
41233;SDS011;26968;42.686;23.352;2022-09-17T03:00:37;13.80;;;5.60;;
41233;SDS011;26968;42.686;23.352;2022-09-17T03:05:43;13.32;;;5.45;;
41233;SDS011;26968;42.686;23.352;2022-09-17T03:08:11;10.07;;;4.95;;
41233;SDS011;26968;42.686;23.352;2022-09-17T03:10:38;23.80;;;4.97;;
41233;SDS011;26968;42.686;23.352;2022-09-17T03:13:04;11.20;;;4.40;;
41233;SDS011;26968;42.686;23.352;2022-09-17T03:15:30;11.73;;;5.05;;
41233;SDS011;26968;42.686;23.352;2022-09-17T03:17:56;15.18;;;4.82;;
41233;SDS011;26968;42.686;23.352;2022-09-17T03:20:21;14.70;;;5.15;;
41233;SDS011;26968;42.686;23.352;2022-09-17T03:22:47;16.95;;;4.50;;
41233;SDS011;26968;42.686;23.352;2022-09-17T03:25:12;14.40;;;5.55;;
41233;SDS011;26968;42.686;23.352;2022-09-17T03:27:38;7.15;;;4.35;;
41233;SDS011;26968;42.686;23.352;2022-09-17T03:30:04;14.80;;;5.07;;
41233;SDS011;26968;42.686;23.352;2022-09-17T03:32:30;11.50;;;4.88;;
41233;SDS011;26968;42.686;23.352;2022-09-17T03:34:56;11.13;;;5.10;;
41233;SDS011;26968;42.686;23.352;2022-09-17T03:37:22;13.73;;;4.90;;
41233;SDS011;26968;42.686;23.352;2022-09-17T03:39:47;15.30;;;4.68;;
41233;SDS011;26968;42.686;23.352;2022-09-17T03:42:13;11.98;;;4.93;;
41233;SDS011;26968;42.686;23.352;2022-09-17T03:44:38;11.57;;;4.80;;
41233;SDS011;26968;42.686;23.352;2022-09-17T03:47:03;9.38;;;5.43;;
41233;SDS011;26968;42.686;23.352;2022-09-17T03:49:29;14.40;;;4.30;;
41233;SDS011;26968;42.686;23.352;2022-09-17T03:51:54;17.70;;;4.57;;
41233;SDS011;26968;42.686;23.352;2022-09-17T03:54:20;13.20;;;4.05;;
41233;SDS011;26968;42.686;23.352;2022-09-17T03:56:45;13.20;;;4.53;;
41233;SDS011;26968;42.686;23.352;2022-09-17T03:59:11;9.88;;;4.25;;
41233;SDS011;26968;42.686;23.352;2022-09-17T04:01:36;12.40;;;4.35;;
41233;SDS011;26968;42.686;23.352;2022-09-17T04:04:02;18.33;;;5.07;;
41233;SDS011;26968;42.686;23.352;2022-09-17T04:06:28;12.23;;;4.45;;
41233;SDS011;26968;42.686;23.352;2022-09-17T04:08:53;14.43;;;4.90;;
41233;SDS011;26968;42.686;23.352;2022-09-17T04:11:20;11.30;;;5.05;;
41233;SDS011;26968;42.686;23.352;2022-09-17T04:13:45;13.07;;;4.68;;
41233;SDS011;26968;42.686;23.352;2022-09-17T04:16:11;15.45;;;5.20;;
41233;SDS011;26968;42.686;23.352;2022-09-17T04:18:36;8.90;;;5.50;;
41233;SDS011;26968;42.686;23.352;2022-09-17T04:21:02;11.68;;;4.28;;
41233;SDS011;26968;42.686;23.352;2022-09-17T04:23:28;11.38;;;4.70;;
41233;SDS011;26968;42.686;23.352;2022-09-17T04:25:53;15.38;;;4.40;;
41233;SDS011;26968;42.686;23.352;2022-09-17T04:28:19;14.55;;;5.93;;
41233;SDS011;26968;42.686;23.352;2022-09-17T04:30:46;17.40;;;6.35;;
41233;SDS011;26968;42.686;23.352;2022-09-17T04:33:12;13.38;;;5.18;;
41233;SDS011;26968;42.686;23.352;2022-09-17T04:35:37;14.75;;;6.15;;
41233;SDS011;26968;42.686;23.352;2022-09-17T04:38:03;16.00;;;5.85;;
41233;SDS011;26968;42.686;23.352;2022-09-17T04:40:28;13.75;;;5.88;;
41233;SDS011;26968;42.686;23.352;2022-09-17T04:42:54;20.33;;;6.80;;
41233;SDS011;26968;42.686;23.352;2022-09-17T04:45:21;25.88;;;10.73;;
41233;SDS011;26968;42.686;23.352;2022-09-17T04:47:47;34.10;;;12.20;;
41233;SDS011;26968;42.686;23.352;2022-09-17T04:50:15;24.80;;;11.63;;
41233;SDS011;26968;42.686;23.352;2022-09-17T04:52:43;22.15;;;11.75;;
41233;SDS011;26968;42.686;23.352;2022-09-17T04:55:09;24.40;;;12.20;;
41233;SDS011;26968;42.686;23.352;2022-09-17T04:57:35;30.98;;;14.05;;
41233;SDS011;26968;42.686;23.352;2022-09-17T05:00:02;34.45;;;13.77;;
41233;SDS011;26968;42.686;23.352;2022-09-17T05:02:30;33.30;;;12.10;;
41233;SDS011;26968;42.686;23.352;2022-09-17T05:04:56;22.70;;;8.57;;
41233;SDS011;26968;42.686;23.352;2022-09-17T05:07:22;19.02;;;6.75;;
41233;SDS011;26968;42.686;23.352;2022-09-17T05:09:47;19.63;;;6.18;;
41233;SDS011;26968;42.686;23.352;2022-09-17T05:12:13;21.42;;;5.93;;
41233;SDS011;26968;42.686;23.352;2022-09-17T05:14:38;16.88;;;5.38;;
41233;SDS011;26968;42.686;23.352;2022-09-17T05:17:04;19.48;;;4.88;;
41233;SDS011;26968;42.686;23.352;2022-09-17T05:19:29;16.60;;;5.22;;
41233;SDS011;26968;42.686;23.352;2022-09-17T05:21:55;15.38;;;4.25;;
41233;SDS011;26968;42.686;23.352;2022-09-17T05:24:20;14.48;;;4.63;;
41233;SDS011;26968;42.686;23.352;2022-09-17T05:26:46;17.30;;;5.03;;
41233;SDS011;26968;42.686;23.352;2022-09-17T05:29:11;15.98;;;4.30;;
41233;SDS011;26968;42.686;23.352;2022-09-17T05:31:37;17.75;;;5.10;;
41233;SDS011;26968;42.686;23.352;2022-09-17T05:34:02;13.10;;;4.63;;
41233;SDS011;26968;42.686;23.352;2022-09-17T05:36:28;17.55;;;6.50;;
41233;SDS011;26968;42.686;23.352;2022-09-17T05:38:53;20.23;;;5.55;;
41233;SDS011;26968;42.686;23.352;2022-09-17T05:41:19;19.83;;;5.85;;
41233;SDS011;26968;42.686;23.352;2022-09-17T05:43:44;22.48;;;6.47;;
41233;SDS011;26968;42.686;23.352;2022-09-17T05:46:10;18.63;;;6.90;;
41233;SDS011;26968;42.686;23.352;2022-09-17T05:48:35;17.23;;;6.15;;
41233;SDS011;26968;42.686;23.352;2022-09-17T05:51:00;18.15;;;5.50;;
41233;SDS011;26968;42.686;23.352;2022-09-17T05:53:26;18.85;;;6.82;;
41233;SDS011;26968;42.686;23.352;2022-09-17T05:55:55;14.55;;;5.03;;
41233;SDS011;26968;42.686;23.352;2022-09-17T05:58:21;13.57;;;6.28;;
41233;SDS011;26968;42.686;23.352;2022-09-17T06:00:46;23.15;;;6.65;;
41233;SDS011;26968;42.686;23.352;2022-09-17T06:03:13;19.33;;;6.97;;
41233;SDS011;26968;42.686;23.352;2022-09-17T06:05:39;14.00;;;6.40;;
41233;SDS011;26968;42.686;23.352;2022-09-17T06:08:05;16.15;;;6.25;;
41233;SDS011;26968;42.686;23.352;2022-09-17T06:10:31;15.30;;;6.57;;
41233;SDS011;26968;42.686;23.352;2022-09-17T06:12:59;17.73;;;6.85;;
41233;SDS011;26968;42.686;23.352;2022-09-17T06:15:25;16.75;;;8.18;;
41233;SDS011;26968;42.686;23.352;2022-09-17T06:17:51;17.05;;;6.60;;
41233;SDS011;26968;42.686;23.352;2022-09-17T06:20:17;29.27;;;8.13;;
41233;SDS011;26968;42.686;23.352;2022-09-17T06:22:44;24.13;;;7.20;;
41233;SDS011;26968;42.686;23.352;2022-09-17T06:25:09;27.23;;;7.18;;
41233;SDS011;26968;42.686;23.352;2022-09-17T06:27:35;14.63;;;7.25;;
41233;SDS011;26968;42.686;23.352;2022-09-17T06:30:00;20.13;;;5.90;;
41233;SDS011;26968;42.686;23.352;2022-09-17T06:32:27;31.00;;;6.25;;
41233;SDS011;26968;42.686;23.352;2022-09-17T06:34:53;24.70;;;6.63;;
41233;SDS011;26968;42.686;23.352;2022-09-17T06:37:19;24.27;;;8.07;;
41233;SDS011;26968;42.686;23.352;2022-09-17T06:39:45;26.42;;;6.07;;
41233;SDS011;26968;42.686;23.352;2022-09-17T06:42:11;18.58;;;6.60;;
41233;SDS011;26968;42.686;23.352;2022-09-17T06:44:36;21.42;;;6.03;;
41233;SDS011;26968;42.686;23.352;2022-09-17T06:47:02;18.50;;;6.13;;
41233;SDS011;26968;42.686;23.352;2022-09-17T06:49:28;26.17;;;7.00;;
41233;SDS011;26968;42.686;23.352;2022-09-17T06:51:55;17.08;;;6.63;;
41233;SDS011;26968;42.686;23.352;2022-09-17T06:54:20;15.93;;;6.78;;
41233;SDS011;26968;42.686;23.352;2022-09-17T06:56:46;23.05;;;7.60;;
41233;SDS011;26968;42.686;23.352;2022-09-17T06:59:12;19.65;;;9.27;;
41233;SDS011;26968;42.686;23.352;2022-09-17T07:01:38;21.10;;;8.88;;
41233;SDS011;26968;42.686;23.352;2022-09-17T07:04:03;16.10;;;7.38;;
41233;SDS011;26968;42.686;23.352;2022-09-17T07:06:29;19.05;;;7.05;;
41233;SDS011;26968;42.686;23.352;2022-09-17T07:08:54;18.05;;;7.82;;
41233;SDS011;26968;42.686;23.352;2022-09-17T07:11:19;25.42;;;6.10;;
41233;SDS011;26968;42.686;23.352;2022-09-17T07:13:46;16.52;;;7.22;;
41233;SDS011;26968;42.686;23.352;2022-09-17T07:16:12;19.42;;;7.90;;
41233;SDS011;26968;42.686;23.352;2022-09-17T07:18:37;21.80;;;7.60;;
41233;SDS011;26968;42.686;23.352;2022-09-17T07:21:04;16.25;;;7.72;;
41233;SDS011;26968;42.686;23.352;2022-09-17T07:23:32;21.45;;;7.55;;
41233;SDS011;26968;42.686;23.352;2022-09-17T07:26:03;22.77;;;8.38;;
41233;SDS011;26968;42.686;23.352;2022-09-17T07:28:30;19.60;;;7.50;;
41233;SDS011;26968;42.686;23.352;2022-09-17T07:30:56;18.67;;;6.18;;
41233;SDS011;26968;42.686;23.352;2022-09-17T07:33:24;20.45;;;7.38;;
41233;SDS011;26968;42.686;23.352;2022-09-17T07:35:55;17.35;;;5.97;;
41233;SDS011;26968;42.686;23.352;2022-09-17T07:38:22;15.27;;;5.28;;
41233;SDS011;26968;42.686;23.352;2022-09-17T07:40:58;18.90;;;5.93;;
41233;SDS011;26968;42.686;23.352;2022-09-17T07:43:37;13.32;;;4.65;;
41233;SDS011;26968;42.686;23.352;2022-09-17T07:46:03;18.35;;;4.03;;
41233;SDS011;26968;42.686;23.352;2022-09-17T07:48:30;12.00;;;3.97;;
41233;SDS011;26968;42.686;23.352;2022-09-17T07:50:56;9.68;;;3.35;;
41233;SDS011;26968;42.686;23.352;2022-09-17T07:53:22;8.80;;;3.25;;
41233;SDS011;26968;42.686;23.352;2022-09-17T07:55:51;9.63;;;3.30;;
41233;SDS011;26968;42.686;23.352;2022-09-17T07:58:22;12.23;;;3.72;;
41233;SDS011;26968;42.686;23.352;2022-09-17T08:00:48;13.52;;;3.67;;
41233;SDS011;26968;42.686;23.352;2022-09-17T08:03:14;10.43;;;2.40;;
41233;SDS011;26968;42.686;23.352;2022-09-17T08:05:39;9.48;;;2.58;;
41233;SDS011;26968;42.686;23.352;2022-09-17T08:08:05;10.02;;;3.00;;
41233;SDS011;26968;42.686;23.352;2022-09-17T08:10:30;9.55;;;2.90;;
41233;SDS011;26968;42.686;23.352;2022-09-17T08:12:56;11.75;;;2.40;;
41233;SDS011;26968;42.686;23.352;2022-09-17T08:15:22;11.65;;;2.35;;
41233;SDS011;26968;42.686;23.352;2022-09-17T08:17:49;11.70;;;2.88;;
41233;SDS011;26968;42.686;23.352;2022-09-17T08:20:15;7.88;;;2.13;;
41233;SDS011;26968;42.686;23.352;2022-09-17T08:22:41;7.30;;;2.05;;
41233;SDS011;26968;42.686;23.352;2022-09-17T08:25:07;9.80;;;2.15;;
41233;SDS011;26968;42.686;23.352;2022-09-17T08:27:34;11.27;;;2.28;;
41233;SDS011;26968;42.686;23.352;2022-09-17T08:30:00;9.48;;;2.13;;
41233;SDS011;26968;42.686;23.352;2022-09-17T08:32:27;12.63;;;2.63;;
41233;SDS011;26968;42.686;23.352;2022-09-17T08:34:53;6.40;;;2.00;;
41233;SDS011;26968;42.686;23.352;2022-09-17T08:37:19;10.80;;;2.00;;
41233;SDS011;26968;42.686;23.352;2022-09-17T08:39:45;10.02;;;2.15;;
41233;SDS011;26968;42.686;23.352;2022-09-17T08:44:42;7.57;;;2.30;;
41233;SDS011;26968;42.686;23.352;2022-09-17T08:47:33;9.27;;;2.40;;
41233;SDS011;26968;42.686;23.352;2022-09-17T08:50:03;16.57;;;3.17;;
41233;SDS011;26968;42.686;23.352;2022-09-17T08:52:52;6.63;;;1.92;;
41233;SDS011;26968;42.686;23.352;2022-09-17T08:55:38;7.57;;;2.28;;
41233;SDS011;26968;42.686;23.352;2022-09-17T09:06:06;12.07;;;2.53;;
41233;SDS011;26968;42.686;23.352;2022-09-17T09:08:39;13.73;;;2.08;;
41233;SDS011;26968;42.686;23.352;2022-09-17T09:11:12;6.97;;;2.50;;
41233;SDS011;26968;42.686;23.352;2022-09-17T09:13:44;9.55;;;2.22;;
41233;SDS011;26968;42.686;23.352;2022-09-17T09:16:17;6.10;;;2.55;;
41233;SDS011;26968;42.686;23.352;2022-09-17T09:18:49;13.88;;;2.55;;
41233;SDS011;26968;42.686;23.352;2022-09-17T09:26:51;7.60;;;2.65;;
41233;SDS011;26968;42.686;23.352;2022-09-17T09:33:20;9.48;;;3.28;;
41233;SDS011;26968;42.686;23.352;2022-09-17T09:35:33;12.93;;;2.92;;
41233;SDS011;26968;42.686;23.352;2022-09-17T09:38:10;10.90;;;3.30;;
41233;SDS011;26968;42.686;23.352;2022-09-17T09:40:50;13.45;;;4.40;;
41233;SDS011;26968;42.686;23.352;2022-09-17T09:43:21;16.00;;;3.88;;
41233;SDS011;26968;42.686;23.352;2022-09-17T09:46:00;11.23;;;3.47;;
41233;SDS011;26968;42.686;23.352;2022-09-17T09:58:47;17.30;;;6.13;;
41233;SDS011;26968;42.686;23.352;2022-09-17T10:03:40;13.27;;;5.10;;
41233;SDS011;26968;42.686;23.352;2022-09-17T10:06:08;14.02;;;5.65;;
41233;SDS011;26968;42.686;23.352;2022-09-17T10:08:35;15.68;;;6.13;;
41233;SDS011;26968;42.686;23.352;2022-09-17T10:11:04;19.40;;;5.75;;
41233;SDS011;26968;42.686;23.352;2022-09-17T10:13:40;15.35;;;6.30;;
41233;SDS011;26968;42.686;23.352;2022-09-17T10:16:14;17.88;;;6.60;;
41233;SDS011;26968;42.686;23.352;2022-09-17T10:18:40;16.65;;;7.50;;
41233;SDS011;26968;42.686;23.352;2022-09-17T10:21:07;19.05;;;7.53;;
41233;SDS011;26968;42.686;23.352;2022-09-17T10:23:47;15.90;;;6.88;;
41233;SDS011;26968;42.686;23.352;2022-09-17T10:26:21;18.60;;;5.85;;
41233;SDS011;26968;42.686;23.352;2022-09-17T10:28:54;11.77;;;5.20;;
41233;SDS011;26968;42.686;23.352;2022-09-17T10:31:22;13.05;;;5.03;;
41233;SDS011;26968;42.686;23.352;2022-09-17T10:34:00;9.07;;;4.72;;
41233;SDS011;26968;42.686;23.352;2022-09-17T10:41:56;11.02;;;5.50;;
41233;SDS011;26968;42.686;23.352;2022-09-17T10:44:38;13.90;;;4.53;;
41233;SDS011;26968;42.686;23.352;2022-09-17T10:47:28;9.32;;;3.83;;
41233;SDS011;26968;42.686;23.352;2022-09-17T10:50:02;10.75;;;4.00;;
41233;SDS011;26968;42.686;23.352;2022-09-17T10:52:36;10.50;;;4.20;;
41233;SDS011;26968;42.686;23.352;2022-09-17T10:58:04;11.30;;;3.53;;
41233;SDS011;26968;42.686;23.352;2022-09-17T11:34:26;11.20;;;3.63;;
41233;SDS011;26968;42.686;23.352;2022-09-17T11:39:59;15.25;;;5.57;;
41233;SDS011;26968;42.686;23.352;2022-09-17T11:42:35;9.60;;;5.07;;
41233;SDS011;26968;42.686;23.352;2022-09-17T11:45:17;11.57;;;4.45;;
41233;SDS011;26968;42.686;23.352;2022-09-17T11:47:57;18.88;;;6.03;;
41233;SDS011;26968;42.686;23.352;2022-09-17T11:50:32;14.77;;;5.82;;
41233;SDS011;26968;42.686;23.352;2022-09-17T11:53:21;15.57;;;5.18;;
41233;SDS011;26968;42.686;23.352;2022-09-17T11:55:57;10.23;;;3.85;;
41233;SDS011;26968;42.686;23.352;2022-09-17T12:01:17;8.45;;;4.28;;
41233;SDS011;26968;42.686;23.352;2022-09-17T12:03:48;12.90;;;4.63;;
41233;SDS011;26968;42.686;23.352;2022-09-17T12:06:27;15.95;;;4.70;;
41233;SDS011;26968;42.686;23.352;2022-09-17T12:09:11;9.43;;;3.70;;
41233;SDS011;26968;42.686;23.352;2022-09-17T12:12:00;11.10;;;3.92;;
41233;SDS011;26968;42.686;23.352;2022-09-17T12:14:38;12.23;;;4.30;;
41233;SDS011;26968;42.686;23.352;2022-09-17T12:17:08;10.57;;;4.13;;
41233;SDS011;26968;42.686;23.352;2022-09-17T12:19:45;9.18;;;4.63;;
41233;SDS011;26968;42.686;23.352;2022-09-17T12:22:22;9.40;;;3.70;;
41233;SDS011;26968;42.686;23.352;2022-09-17T12:24:51;7.70;;;3.30;;
41233;SDS011;26968;42.686;23.352;2022-09-17T12:30:16;9.07;;;3.97;;
41233;SDS011;26968;42.686;23.352;2022-09-17T12:43:11;9.73;;;3.20;;
41233;SDS011;26968;42.686;23.352;2022-09-17T12:59:25;8.95;;;4.28;;
41233;SDS011;26968;42.686;23.352;2022-09-17T13:02:11;13.65;;;4.78;;
41233;SDS011;26968;42.686;23.352;2022-09-17T13:10:40;9.05;;;4.15;;
41233;SDS011;26968;42.686;23.352;2022-09-17T13:23:33;11.73;;;5.03;;
41233;SDS011;26968;42.686;23.352;2022-09-17T13:26:02;9.73;;;4.97;;
41233;SDS011;26968;42.686;23.352;2022-09-17T13:31:05;13.13;;;5.35;;
41233;SDS011;26968;42.686;23.352;2022-09-17T13:38:58;12.00;;;5.00;;
41233;SDS011;26968;42.686;23.352;2022-09-17T13:41:25;15.13;;;5.57;;
41233;SDS011;26968;42.686;23.352;2022-09-17T13:43:52;21.45;;;5.80;;
41233;SDS011;26968;42.686;23.352;2022-09-17T13:46:28;13.48;;;5.43;;
41233;SDS011;26968;42.686;23.352;2022-09-17T13:49:01;16.00;;;5.60;;
41233;SDS011;26968;42.686;23.352;2022-09-17T13:53:55;15.82;;;5.53;;
41233;SDS011;26968;42.686;23.352;2022-09-17T13:56:39;17.60;;;5.97;;
41233;SDS011;26968;42.686;23.352;2022-09-17T13:59:09;11.38;;;4.93;;
41233;SDS011;26968;42.686;23.352;2022-09-17T14:07:48;9.80;;;3.97;;
41233;SDS011;26968;42.686;23.352;2022-09-17T14:09:58;14.82;;;4.55;;
41233;SDS011;26968;42.686;23.352;2022-09-17T14:18:01;10.45;;;4.00;;
41233;SDS011;26968;42.686;23.352;2022-09-17T14:20:47;20.00;;;4.82;;
41233;SDS011;26968;42.686;23.352;2022-09-17T14:23:13;13.45;;;4.57;;
41233;SDS011;26968;42.686;23.352;2022-09-17T14:25:40;10.55;;;4.15;;
41233;SDS011;26968;42.686;23.352;2022-09-17T14:28:27;11.18;;;4.40;;
41233;SDS011;26968;42.686;23.352;2022-09-17T14:31:05;9.73;;;4.10;;
41233;SDS011;26968;42.686;23.352;2022-09-17T14:33:39;8.65;;;4.70;;
41233;SDS011;26968;42.686;23.352;2022-09-17T14:36:08;13.82;;;4.53;;
41233;SDS011;26968;42.686;23.352;2022-09-17T14:38:40;7.75;;;4.00;;
41233;SDS011;26968;42.686;23.352;2022-09-17T14:46:38;11.23;;;8.13;;
41233;SDS011;26968;42.686;23.352;2022-09-17T14:49:14;6.55;;;3.45;;
41233;SDS011;26968;42.686;23.352;2022-09-17T14:52:24;10.70;;;2.55;;
41233;SDS011;26968;42.686;23.352;2022-09-17T14:55:09;12.48;;;3.28;;
41233;SDS011;26968;42.686;23.352;2022-09-17T14:57:58;10.98;;;2.90;;
41233;SDS011;26968;42.686;23.352;2022-09-17T15:00:36;8.10;;;3.05;;
41233;SDS011;26968;42.686;23.352;2022-09-17T15:03:02;12.80;;;4.07;;
41233;SDS011;26968;42.686;23.352;2022-09-17T15:08:06;7.05;;;3.33;;
41233;SDS011;26968;42.686;23.352;2022-09-17T15:10:35;13.10;;;4.97;;
41233;SDS011;26968;42.686;23.352;2022-09-17T15:13:17;11.93;;;4.25;;
41233;SDS011;26968;42.686;23.352;2022-09-17T15:15:52;10.98;;;5.13;;
41233;SDS011;26968;42.686;23.352;2022-09-17T15:18:21;12.80;;;4.85;;
41233;SDS011;26968;42.686;23.352;2022-09-17T15:20:56;16.52;;;4.32;;
41233;SDS011;26968;42.686;23.352;2022-09-17T15:23:25;15.82;;;4.47;;
41233;SDS011;26968;42.686;23.352;2022-09-17T15:25:54;9.75;;;3.47;;
41233;SDS011;26968;42.686;23.352;2022-09-17T15:28:26;10.00;;;4.03;;
41233;SDS011;26968;42.686;23.352;2022-09-17T15:31:00;6.40;;;3.00;;
41233;SDS011;26968;42.686;23.352;2022-09-17T15:33:27;8.75;;;3.38;;
41233;SDS011;26968;42.686;23.352;2022-09-17T15:38:35;7.18;;;2.92;;
41233;SDS011;26968;42.686;23.352;2022-09-17T15:41:23;7.32;;;2.88;;
41233;SDS011;26968;42.686;23.352;2022-09-17T15:43:52;7.10;;;3.38;;
41233;SDS011;26968;42.686;23.352;2022-09-17T15:46:27;10.27;;;3.30;;
41233;SDS011;26968;42.686;23.352;2022-09-17T15:48:56;10.07;;;3.30;;
41233;SDS011;26968;42.686;23.352;2022-09-17T15:53:51;19.75;;;3.80;;
41233;SDS011;26968;42.686;23.352;2022-09-17T15:56:19;14.50;;;4.03;;
41233;SDS011;26968;42.686;23.352;2022-09-17T16:04:19;8.80;;;3.42;;
41233;SDS011;26968;42.686;23.352;2022-09-17T16:06:52;8.68;;;3.58;;
41233;SDS011;26968;42.686;23.352;2022-09-17T16:09:37;13.60;;;4.47;;
41233;SDS011;26968;42.686;23.352;2022-09-17T16:12:03;12.88;;;4.57;;
41233;SDS011;26968;42.686;23.352;2022-09-17T16:14:29;8.98;;;4.03;;
41233;SDS011;26968;42.686;23.352;2022-09-17T16:16:54;10.52;;;3.75;;
41233;SDS011;26968;42.686;23.352;2022-09-17T16:19:20;10.32;;;3.90;;
41233;SDS011;26968;42.686;23.352;2022-09-17T16:21:47;10.85;;;4.10;;
41233;SDS011;26968;42.686;23.352;2022-09-17T16:24:12;10.95;;;4.13;;
41233;SDS011;26968;42.686;23.352;2022-09-17T16:26:38;11.98;;;4.30;;
41233;SDS011;26968;42.686;23.352;2022-09-17T16:29:05;9.57;;;3.85;;
41233;SDS011;26968;42.686;23.352;2022-09-17T16:31:36;10.18;;;3.78;;
41233;SDS011;26968;42.686;23.352;2022-09-17T16:34:01;10.05;;;4.13;;
41233;SDS011;26968;42.686;23.352;2022-09-17T16:36:27;4.82;;;2.75;;
41233;SDS011;26968;42.686;23.352;2022-09-17T16:38:55;8.95;;;2.70;;
41233;SDS011;26968;42.686;23.352;2022-09-17T16:41:20;8.93;;;3.25;;
41233;SDS011;26968;42.686;23.352;2022-09-17T16:43:46;10.98;;;2.80;;
41233;SDS011;26968;42.686;23.352;2022-09-17T16:46:11;10.23;;;3.10;;
41233;SDS011;26968;42.686;23.352;2022-09-17T16:48:37;7.53;;;2.80;;
41233;SDS011;26968;42.686;23.352;2022-09-17T16:51:06;7.70;;;3.20;;
41233;SDS011;26968;42.686;23.352;2022-09-17T16:53:33;7.13;;;3.80;;
41233;SDS011;26968;42.686;23.352;2022-09-17T16:55:58;11.15;;;4.18;;
41233;SDS011;26968;42.686;23.352;2022-09-17T16:58:24;12.68;;;4.05;;
41233;SDS011;26968;42.686;23.352;2022-09-17T17:00:50;9.35;;;3.70;;
41233;SDS011;26968;42.686;23.352;2022-09-17T17:03:15;10.35;;;6.20;;
41233;SDS011;26968;42.686;23.352;2022-09-17T17:05:41;8.95;;;4.65;;
41233;SDS011;26968;42.686;23.352;2022-09-17T17:08:07;9.27;;;3.17;;
41233;SDS011;26968;42.686;23.352;2022-09-17T17:10:34;8.75;;;3.63;;
41233;SDS011;26968;42.686;23.352;2022-09-17T17:13:01;9.20;;;4.65;;
41233;SDS011;26968;42.686;23.352;2022-09-17T17:15:27;10.52;;;3.50;;
41233;SDS011;26968;42.686;23.352;2022-09-17T17:17:52;13.93;;;6.28;;
41233;SDS011;26968;42.686;23.352;2022-09-17T17:20:18;10.13;;;3.97;;
41233;SDS011;26968;42.686;23.352;2022-09-17T17:22:44;9.85;;;4.07;;
41233;SDS011;26968;42.686;23.352;2022-09-17T17:25:10;8.70;;;4.05;;
41233;SDS011;26968;42.686;23.352;2022-09-17T17:27:37;16.05;;;4.18;;
41233;SDS011;26968;42.686;23.352;2022-09-17T17:30:04;12.02;;;4.55;;
41233;SDS011;26968;42.686;23.352;2022-09-17T17:32:31;13.52;;;4.63;;
41233;SDS011;26968;42.686;23.352;2022-09-17T17:34:57;5.85;;;3.88;;
41233;SDS011;26968;42.686;23.352;2022-09-17T17:37:23;15.25;;;5.15;;
41233;SDS011;26968;42.686;23.352;2022-09-17T17:39:48;11.10;;;4.57;;
41233;SDS011;26968;42.686;23.352;2022-09-17T17:42:14;13.10;;;4.35;;
41233;SDS011;26968;42.686;23.352;2022-09-17T17:44:40;12.55;;;4.40;;
41233;SDS011;26968;42.686;23.352;2022-09-17T17:47:05;11.77;;;4.63;;
41233;SDS011;26968;42.686;23.352;2022-09-17T17:49:31;8.73;;;4.00;;
41233;SDS011;26968;42.686;23.352;2022-09-17T17:51:57;10.32;;;3.90;;
41233;SDS011;26968;42.686;23.352;2022-09-17T17:54:24;8.48;;;4.07;;
41233;SDS011;26968;42.686;23.352;2022-09-17T17:56:51;9.75;;;4.65;;
41233;SDS011;26968;42.686;23.352;2022-09-17T17:59:18;17.90;;;4.93;;
41233;SDS011;26968;42.686;23.352;2022-09-17T18:01:43;13.77;;;4.18;;
41233;SDS011;26968;42.686;23.352;2022-09-17T18:04:09;10.00;;;4.78;;
41233;SDS011;26968;42.686;23.352;2022-09-17T18:06:34;6.30;;;3.60;;
41233;SDS011;26968;42.686;23.352;2022-09-17T18:09:00;9.60;;;3.83;;
41233;SDS011;26968;42.686;23.352;2022-09-17T18:11:27;16.08;;;3.80;;
41233;SDS011;26968;42.686;23.352;2022-09-17T18:13:53;15.98;;;4.45;;
41233;SDS011;26968;42.686;23.352;2022-09-17T18:16:20;11.70;;;4.40;;
41233;SDS011;26968;42.686;23.352;2022-09-17T18:18:46;12.88;;;4.25;;
41233;SDS011;26968;42.686;23.352;2022-09-17T18:21:13;12.30;;;3.80;;
41233;SDS011;26968;42.686;23.352;2022-09-17T18:23:40;8.75;;;3.03;;
41233;SDS011;26968;42.686;23.352;2022-09-17T18:26:08;4.85;;;3.13;;